createdAt,value
2022-12-04T00:02:07.610Z,60.93
2022-12-04T00:04:37.746Z,70.00
2022-12-04T00:07:06.328Z,69.07
2022-12-04T00:09:34.714Z,63.70
2022-12-04T00:12:02.993Z,78.10
2022-12-04T00:14:31.261Z,51.77
2022-12-04T00:16:59.869Z,53.33
2022-12-04T00:19:28.300Z,73.93
2022-12-04T00:21:57.985Z,52.63
2022-12-04T00:24:26.338Z,51.43
2022-12-04T00:26:54.733Z,68.27
2022-12-04T00:29:23.304Z,57.87
2022-12-04T00:31:51.685Z,59.97
2022-12-04T00:34:20.176Z,62.20
2022-12-04T00:36:48.465Z,62.30
2022-12-04T00:39:18.280Z,57.90
2022-12-04T00:41:46.807Z,67.90
2022-12-04T00:44:15.113Z,50.27
2022-12-04T00:46:43.671Z,49.27
2022-12-04T00:49:12.422Z,74.40
2022-12-04T00:51:40.819Z,62.80
2022-12-04T00:54:09.549Z,56.13
2022-12-04T00:56:40.133Z,61.80
2022-12-04T00:59:08.523Z,57.33
2022-12-04T01:01:36.867Z,63.30
2022-12-04T01:04:05.578Z,58.13
2022-12-04T01:06:36.093Z,67.50
2022-12-04T01:09:06.912Z,65.47
2022-12-04T01:11:35.573Z,64.90
2022-12-04T01:14:06.422Z,62.70
2022-12-04T01:16:40.895Z,61.70
2022-12-04T01:19:12.797Z,67.73
2022-12-04T01:21:41.943Z,68.13
2022-12-04T01:24:10.922Z,58.93
2022-12-04T01:26:39.578Z,66.30
2022-12-04T01:29:09.759Z,61.40
2022-12-04T01:31:38.574Z,56.33
2022-12-04T01:34:07.024Z,65.90
2022-12-04T01:36:35.791Z,58.33
2022-12-04T01:39:04.283Z,57.47
2022-12-04T01:41:34.028Z,64.60
2022-12-04T01:44:17.239Z,66.23
2022-12-04T01:46:47.638Z,65.37
2022-12-04T01:49:20.925Z,58.80
2022-12-04T01:51:54.388Z,60.87
2022-12-04T01:54:28.459Z,60.27
2022-12-04T01:57:03.236Z,66.97
2022-12-04T01:59:39.051Z,55.33
2022-12-04T02:02:12.899Z,60.17
2022-12-04T02:04:43.447Z,51.87
2022-12-04T02:07:12.424Z,62.13
2022-12-04T02:09:42.231Z,65.67
2022-12-04T02:12:33.905Z,64.40
2022-12-04T02:15:10.798Z,64.07
2022-12-04T02:17:48.091Z,61.93
2022-12-04T02:20:27.321Z,68.33
2022-12-04T02:23:20.713Z,67.00
2022-12-04T02:26:00.842Z,58.93
2022-12-04T02:28:37.876Z,74.00
2022-12-04T02:31:10.719Z,58.27
2022-12-04T02:33:48.029Z,72.57
2022-12-04T02:36:24.037Z,69.67
2022-12-04T02:38:58.361Z,64.10
2022-12-04T02:41:37.896Z,57.90
2022-12-04T02:44:15.172Z,68.30
2022-12-04T02:46:46.872Z,70.97
2022-12-04T02:49:20.472Z,67.90
2022-12-04T02:51:51.220Z,57.00
2022-12-04T02:54:27.206Z,66.80
2022-12-04T02:56:57.478Z,69.17
2022-12-04T02:59:32.936Z,62.17
2022-12-04T03:02:09.291Z,61.47
2022-12-04T03:04:40.573Z,64.63
2022-12-04T03:07:15.875Z,58.27
2022-12-04T03:09:49.298Z,62.47
2022-12-04T03:12:22.895Z,64.23
2022-12-04T03:14:57.519Z,64.47
2022-12-04T03:17:34.032Z,71.27
2022-12-04T03:20:09.797Z,67.50
2022-12-04T03:22:42.049Z,68.43
2022-12-04T03:25:12.269Z,64.37
2022-12-04T03:27:50.145Z,72.83
2022-12-04T03:30:22.911Z,71.23
2022-12-04T03:32:58.187Z,56.70
2022-12-04T03:35:34.197Z,78.87
2022-12-04T03:38:09.610Z,63.60
2022-12-04T03:40:42.599Z,74.93
2022-12-04T03:43:18.257Z,70.30
2022-12-04T03:45:54.452Z,58.63
2022-12-04T03:48:27.847Z,59.33
2022-12-04T03:51:06.681Z,65.87
2022-12-04T03:53:43.035Z,61.33
2022-12-04T03:56:18.377Z,68.00
2022-12-04T03:58:54.040Z,80.03
2022-12-04T04:01:29.838Z,84.77
2022-12-04T04:04:01.979Z,57.47
2022-12-04T04:06:38.789Z,67.73
2022-12-04T04:09:14.530Z,62.27
2022-12-04T04:11:48.603Z,65.40
2022-12-04T04:14:40.232Z,63.70
2022-12-04T04:17:37.997Z,60.03
2022-12-04T04:20:29.553Z,52.17
2022-12-04T04:23:20.468Z,64.23
2022-12-04T04:25:52.913Z,80.20
2022-12-04T04:28:33.179Z,62.23
2022-12-04T04:31:13.332Z,69.23
2022-12-04T04:33:54.116Z,60.13
2022-12-04T04:36:31.959Z,64.60
2022-12-04T04:39:06.986Z,64.67
2022-12-04T04:41:45.339Z,63.97
2022-12-04T04:44:22.951Z,62.37
2022-12-04T04:46:56.808Z,56.87
2022-12-04T04:49:29.762Z,65.70
2022-12-04T04:51:59.021Z,60.23
2022-12-04T04:54:29.336Z,56.03
2022-12-04T04:56:57.886Z,65.17
2022-12-04T04:59:26.321Z,67.07
2022-12-04T05:01:54.911Z,61.73
2022-12-04T05:04:23.376Z,55.20
2022-12-04T05:06:53.274Z,59.03
2022-12-04T05:09:21.980Z,59.50
2022-12-04T05:11:50.462Z,63.47
2022-12-04T05:14:18.942Z,59.50
2022-12-04T05:16:47.411Z,61.70
2022-12-04T05:19:33.207Z,53.60
2022-12-04T05:22:02.891Z,61.07
2022-12-04T05:24:31.288Z,57.33
2022-12-04T05:26:59.744Z,60.70
2022-12-04T05:29:32.788Z,67.33
2022-12-04T05:32:04.291Z,60.93
2022-12-04T05:34:32.912Z,77.50
2022-12-04T05:37:02.854Z,68.00
2022-12-04T05:39:31.303Z,69.70
2022-12-04T05:41:59.556Z,64.53
2022-12-04T05:44:28.248Z,69.30
2022-12-04T05:46:56.811Z,65.70
2022-12-04T05:49:26.578Z,57.50
2022-12-04T05:51:54.914Z,66.73
2022-12-04T05:54:25.031Z,65.83
2022-12-04T05:56:53.643Z,65.17
2022-12-04T05:59:22.343Z,68.87
2022-12-04T06:01:50.935Z,62.33
2022-12-04T06:04:19.655Z,54.47
2022-12-04T06:06:48.625Z,56.87
2022-12-04T06:09:17.144Z,59.27
2022-12-04T06:11:47.159Z,64.30
2022-12-04T06:14:17.345Z,58.57
2022-12-04T06:16:47.530Z,57.37
2022-12-04T06:19:19.100Z,67.67
2022-12-04T06:21:50.024Z,59.03
2022-12-04T06:24:22.335Z,64.73
2022-12-04T06:27:27.270Z,71.73
2022-12-04T06:29:45.291Z,69.00
2022-12-04T06:32:19.510Z,65.27
2022-12-04T06:34:53.102Z,74.17
2022-12-04T06:37:22.999Z,55.33
2022-12-04T06:39:51.433Z,57.37
2022-12-04T06:42:21.196Z,69.47
2022-12-04T06:44:50.529Z,65.13
2022-12-04T06:47:18.989Z,62.43
2022-12-04T06:49:52.052Z,60.63
2022-12-04T06:52:20.442Z,56.93
2022-12-04T06:54:49.031Z,70.83
2022-12-04T06:57:17.378Z,58.97
2022-12-04T06:59:47.112Z,57.37
2022-12-04T07:02:15.468Z,64.87
2022-12-04T07:04:45.371Z,64.10
2022-12-04T07:07:14.018Z,64.50
2022-12-04T07:09:42.375Z,70.97
2022-12-04T07:12:10.726Z,66.57
2022-12-04T07:14:39.319Z,48.73
2022-12-04T07:17:09.104Z,53.43
2022-12-04T07:19:38.946Z,64.17
2022-12-04T07:22:08.888Z,55.90
2022-12-04T07:24:38.543Z,71.43
2022-12-04T07:27:06.903Z,57.53
2022-12-04T07:29:35.291Z,61.17
2022-12-04T07:32:03.801Z,66.57
2022-12-04T07:34:35.776Z,66.73
2022-12-04T07:37:04.354Z,63.40
2022-12-04T07:39:32.715Z,63.10
2022-12-04T07:42:01.273Z,59.80
2022-12-04T07:44:32.434Z,61.53
2022-12-04T07:47:00.986Z,57.00
2022-12-04T07:49:30.900Z,50.60
2022-12-04T07:52:00.716Z,58.73
2022-12-04T07:54:29.316Z,64.00
2022-12-04T07:56:58.909Z,48.73
2022-12-04T07:59:27.444Z,57.70
2022-12-04T08:01:57.731Z,63.87
2022-12-04T08:04:26.228Z,48.23
2022-12-04T08:06:54.660Z,62.47
2022-12-04T08:09:24.367Z,61.80
2022-12-04T08:11:52.979Z,54.90
2022-12-04T08:14:21.484Z,47.63
2022-12-04T08:16:53.029Z,59.97
2022-12-04T08:19:21.770Z,59.57
2022-12-04T08:21:50.151Z,49.87
2022-12-04T08:24:18.448Z,56.13
2022-12-04T08:26:48.886Z,62.33
2022-12-04T08:29:17.247Z,55.70
2022-12-04T08:31:45.644Z,52.07
2022-12-04T08:34:14.419Z,54.93
2022-12-04T08:36:42.776Z,52.63
2022-12-04T08:39:13.192Z,46.07
2022-12-04T08:41:41.516Z,51.87
2022-12-04T08:44:11.801Z,52.47
2022-12-04T08:46:40.484Z,51.43
2022-12-04T08:49:08.903Z,53.17
2022-12-04T08:51:37.397Z,59.00
2022-12-04T08:54:09.205Z,45.83
2022-12-04T08:56:38.939Z,45.43
2022-12-04T08:59:07.734Z,53.33
2022-12-04T09:01:37.573Z,50.03
2022-12-04T09:04:06.378Z,56.10
2022-12-04T09:06:34.819Z,49.53
2022-12-04T09:09:03.543Z,46.20
2022-12-04T09:11:32.955Z,48.70
2022-12-04T09:14:03.774Z,52.87
2022-12-04T09:16:32.545Z,59.83
2022-12-04T09:19:02.379Z,56.10
2022-12-04T09:21:30.770Z,50.37
2022-12-04T09:24:00.888Z,47.40
2022-12-04T09:26:32.450Z,42.73
2022-12-04T09:29:03.511Z,47.63
2022-12-04T09:31:32.734Z,41.00
2022-12-04T09:34:03.252Z,50.57
2022-12-04T09:36:31.692Z,53.30
2022-12-04T09:39:00.383Z,42.20
2022-12-04T09:42:08.085Z,48.73
2022-12-04T09:44:41.930Z,44.00
2022-12-04T09:47:22.473Z,47.70
2022-12-04T09:49:58.393Z,46.70
2022-12-04T09:52:40.857Z,53.67
2022-12-04T09:55:19.035Z,50.57
2022-12-04T09:57:50.384Z,51.17
2022-12-04T10:00:21.832Z,46.40
2022-12-04T10:02:56.292Z,48.67
2022-12-04T10:05:42.527Z,41.10
2022-12-04T10:08:22.459Z,43.43
2022-12-04T10:11:05.566Z,50.77
2022-12-04T10:14:01.245Z,43.27
2022-12-04T10:16:43.095Z,47.20
2022-12-04T10:19:24.278Z,46.90
2022-12-04T10:22:08.051Z,43.63
2022-12-04T10:24:47.183Z,38.97
2022-12-04T10:27:23.006Z,41.47
2022-12-04T10:29:56.919Z,48.93
2022-12-04T10:32:32.477Z,50.80
2022-12-04T10:35:17.000Z,42.30
2022-12-04T10:37:49.454Z,42.60
2022-12-04T10:40:24.006Z,42.87
2022-12-04T10:43:00.834Z,43.57
2022-12-04T10:45:29.554Z,44.10
2022-12-04T10:47:58.014Z,38.60
2022-12-04T10:50:28.232Z,45.43
2022-12-04T10:52:59.106Z,41.53
2022-12-04T10:55:33.903Z,36.70
2022-12-04T10:58:03.129Z,33.47
2022-12-04T11:00:35.965Z,43.70
2022-12-04T11:03:11.281Z,34.10
2022-12-04T11:05:46.282Z,33.43
2022-12-04T11:08:24.921Z,34.50
2022-12-04T11:11:01.759Z,31.50
2022-12-04T11:13:30.731Z,33.07
2022-12-04T11:16:00.726Z,35.20
2022-12-04T11:18:31.718Z,37.67
2022-12-04T11:21:04.086Z,42.40
2022-12-04T11:23:42.812Z,29.60
2022-12-04T11:26:12.247Z,35.90
2022-12-04T11:28:45.415Z,40.67
2022-12-04T11:31:20.850Z,35.43
2022-12-04T11:33:54.523Z,36.93
2022-12-04T11:36:27.821Z,40.70
2022-12-04T11:39:08.460Z,44.30
2022-12-04T11:41:36.987Z,34.00
2022-12-04T11:44:08.359Z,33.30
2022-12-04T11:46:37.543Z,38.60
2022-12-04T11:49:05.827Z,37.50
2022-12-04T11:51:51.979Z,36.03
2022-12-04T11:54:32.685Z,35.63
2022-12-04T11:57:16.334Z,47.33
2022-12-04T12:00:03.627Z,43.47
2022-12-04T12:03:06.089Z,41.13
2022-12-04T12:06:20.371Z,35.90
2022-12-04T12:09:13.769Z,32.70
2022-12-04T12:11:50.864Z,32.73
2022-12-04T12:14:26.713Z,38.10
2022-12-04T12:17:09.936Z,34.23
2022-12-04T12:20:11.307Z,32.30
2022-12-04T12:23:24.110Z,35.40
2022-12-04T12:26:04.583Z,26.43
2022-12-04T12:28:58.323Z,34.30
2022-12-04T12:31:59.904Z,27.33
2022-12-04T12:34:38.211Z,31.10
2022-12-04T12:37:22.264Z,25.80
2022-12-04T12:39:58.632Z,27.37
2022-12-04T12:42:32.099Z,27.67
2022-12-04T12:45:08.752Z,33.97
2022-12-04T12:47:43.990Z,28.33
2022-12-04T12:50:22.833Z,31.93
2022-12-04T12:52:57.403Z,23.60
2022-12-04T12:55:33.220Z,29.23
2022-12-04T12:58:11.407Z,27.70
2022-12-04T13:00:50.247Z,28.67
2022-12-04T13:03:33.953Z,27.43
2022-12-04T13:06:07.343Z,28.10
2022-12-04T13:08:44.960Z,29.53
2022-12-04T13:11:19.616Z,29.37
2022-12-04T13:13:53.177Z,30.87
2022-12-04T13:16:27.925Z,29.90
2022-12-04T13:19:10.931Z,24.47
2022-12-04T13:21:45.831Z,29.10
2022-12-04T13:25:04.143Z,22.00
2022-12-04T13:27:51.109Z,30.07
2022-12-04T13:30:23.063Z,29.57
2022-12-04T13:33:29.394Z,27.13
2022-12-04T13:36:33.137Z,30.27
2022-12-04T13:39:34.585Z,23.50
2022-12-04T13:42:07.801Z,31.63
2022-12-04T13:44:37.302Z,28.53
2022-12-04T13:47:09.451Z,28.83
2022-12-04T13:49:42.168Z,21.70
2022-12-04T13:52:25.537Z,30.00
2022-12-04T13:54:59.960Z,25.53
2022-12-04T13:57:29.887Z,23.90
2022-12-04T14:00:08.395Z,27.57
2022-12-04T14:02:51.688Z,26.70
2022-12-04T14:05:29.964Z,25.50
2022-12-04T14:08:09.101Z,23.00
2022-12-04T14:10:40.187Z,21.30
2022-12-04T14:13:19.755Z,22.80
2022-12-04T14:15:49.252Z,21.03
2022-12-04T14:18:29.298Z,22.23
2022-12-04T14:21:05.777Z,25.13
2022-12-04T14:23:40.343Z,25.70
2022-12-04T14:26:48.886Z,24.03
2022-12-04T14:29:40.559Z,28.70
2022-12-04T14:32:16.937Z,26.70
2022-12-04T14:34:48.009Z,25.87
2022-12-04T14:37:27.914Z,24.10
2022-12-04T14:39:59.018Z,27.60
2022-12-04T14:42:34.888Z,25.77
2022-12-04T14:45:06.988Z,20.37
2022-12-04T14:47:49.980Z,23.40
2022-12-04T14:50:35.249Z,32.10
2022-12-04T14:53:20.508Z,22.70
2022-12-04T14:56:07.229Z,22.97
2022-12-04T14:58:39.995Z,30.23
2022-12-04T15:01:28.689Z,24.70
2022-12-04T15:04:04.681Z,28.90
2022-12-04T15:06:34.795Z,31.00
2022-12-04T15:09:32.680Z,32.47
2022-12-04T15:12:19.015Z,22.90
2022-12-04T15:14:49.705Z,26.83
2022-12-04T15:17:20.090Z,26.00
2022-12-04T15:19:50.802Z,26.50
2022-12-04T15:22:26.371Z,26.70
2022-12-04T15:24:56.820Z,24.90
2022-12-04T15:27:32.349Z,25.07
2022-12-04T15:30:03.695Z,25.00
2022-12-04T15:32:33.672Z,31.37
2022-12-04T15:35:08.947Z,27.27
2022-12-04T15:37:38.003Z,24.53
2022-12-04T15:40:11.889Z,31.00
2022-12-04T15:42:40.678Z,26.03
2022-12-04T15:45:35.132Z,25.00
2022-12-04T15:48:03.796Z,23.87
2022-12-04T15:50:32.444Z,20.00
2022-12-04T15:53:08.587Z,20.27
2022-12-04T15:55:49.392Z,27.27
2022-12-04T15:58:24.009Z,22.10
2022-12-04T16:00:57.773Z,26.67
2022-12-04T16:03:30.884Z,24.47
2022-12-04T16:06:18.127Z,19.93
2022-12-04T16:08:48.885Z,20.70
2022-12-04T16:11:37.822Z,20.70
2022-12-04T16:14:17.589Z,22.20
2022-12-04T16:16:49.803Z,23.37
2022-12-04T16:19:27.082Z,21.73
2022-12-04T16:21:55.642Z,18.67
2022-12-04T16:24:25.049Z,22.33
2022-12-04T16:26:58.209Z,26.90
2022-12-04T16:29:27.355Z,30.43
2022-12-04T16:32:02.514Z,22.10
2022-12-04T16:34:31.532Z,20.57
2022-12-04T16:37:00.475Z,23.10
2022-12-04T16:39:28.764Z,25.43
2022-12-04T16:42:00.838Z,23.53
2022-12-04T16:44:29.160Z,24.80
2022-12-04T16:46:57.918Z,25.83
2022-12-04T16:49:26.383Z,27.60
2022-12-04T16:51:54.799Z,22.97
2022-12-04T16:54:23.620Z,26.17
2022-12-04T16:56:51.933Z,28.10
2022-12-04T16:59:21.856Z,28.87
2022-12-04T17:01:52.607Z,30.93
2022-12-04T17:04:21.090Z,33.63
2022-12-04T17:06:49.522Z,27.47
2022-12-04T17:09:20.275Z,31.47
2022-12-04T17:11:48.614Z,27.30
2022-12-04T17:14:16.972Z,35.90
2022-12-04T17:16:47.334Z,34.90
2022-12-04T17:19:17.109Z,24.73
2022-12-04T17:21:46.260Z,35.20
2022-12-04T17:24:14.757Z,34.03
2022-12-04T17:26:43.124Z,31.70
2022-12-04T17:29:11.521Z,39.47
2022-12-04T17:31:39.931Z,32.37
2022-12-04T17:34:09.654Z,32.50
2022-12-04T17:36:38.065Z,35.73
2022-12-04T17:39:08.080Z,36.17
2022-12-04T17:41:36.384Z,36.33
2022-12-04T17:44:04.754Z,36.43
2022-12-04T17:46:33.081Z,33.77
2022-12-04T17:49:06.656Z,37.53
2022-12-04T17:51:37.104Z,33.33
2022-12-04T17:54:06.714Z,38.63
2022-12-04T17:56:35.584Z,44.23
2022-12-04T17:59:04.674Z,36.23
2022-12-04T18:01:33.145Z,46.63
2022-12-04T18:04:04.630Z,37.37
2022-12-04T18:06:36.663Z,37.27
2022-12-04T18:09:07.172Z,44.07
2022-12-04T18:11:38.077Z,35.93
2022-12-04T18:14:12.273Z,41.57
2022-12-04T18:16:44.553Z,43.43
2022-12-04T18:19:14.872Z,42.60
2022-12-04T18:21:44.861Z,42.87
2022-12-04T18:24:14.047Z,37.70
2022-12-04T18:26:44.430Z,42.43
2022-12-04T18:29:16.134Z,44.27
2022-12-04T18:31:44.772Z,41.53
2022-12-04T18:34:14.317Z,46.00
2022-12-04T18:36:46.051Z,42.93
2022-12-04T18:39:17.062Z,35.37
2022-12-04T18:41:46.038Z,40.23
2022-12-04T18:44:15.239Z,39.60
2022-12-04T18:46:47.442Z,44.77
2022-12-04T18:49:15.822Z,52.20
2022-12-04T18:51:50.088Z,51.43
2022-12-04T18:54:21.177Z,38.73
2022-12-04T18:56:50.381Z,43.67
2022-12-04T18:59:22.680Z,40.60
2022-12-04T19:01:52.239Z,44.07
2022-12-04T19:04:23.597Z,44.60
2022-12-04T19:06:55.927Z,43.70
2022-12-04T19:10:09.870Z,46.93
2022-12-04T19:12:15.879Z,44.90
2022-12-04T19:14:44.350Z,45.80
2022-12-04T19:17:12.721Z,47.80
2022-12-04T19:19:41.151Z,38.73
2022-12-04T19:22:11.125Z,49.90
2022-12-04T19:24:39.676Z,51.07
2022-12-04T19:27:11.433Z,38.20
2022-12-04T19:29:40.889Z,45.60
2022-12-04T19:32:11.074Z,46.77
2022-12-04T19:34:39.833Z,43.47
2022-12-04T19:37:10.344Z,47.57
2022-12-04T19:39:39.122Z,42.63
2022-12-04T19:42:07.915Z,34.00
2022-12-04T19:44:52.253Z,41.40
2022-12-04T19:47:20.941Z,38.43
2022-12-04T19:49:50.145Z,40.80
2022-12-04T19:52:20.256Z,37.97
2022-12-04T19:54:48.663Z,38.03
2022-12-04T19:57:18.392Z,36.90
2022-12-04T19:59:47.082Z,39.73
2022-12-04T20:02:16.342Z,31.40
2022-12-04T20:04:45.179Z,38.17
2022-12-04T20:07:14.221Z,34.33
2022-12-04T20:09:52.044Z,30.43
2022-12-04T20:12:21.170Z,38.03
2022-12-04T20:14:49.696Z,35.73
2022-12-04T20:17:18.121Z,44.00
2022-12-04T20:19:46.653Z,30.73
2022-12-04T20:22:16.478Z,34.40
2022-12-04T20:24:46.642Z,35.43
2022-12-04T20:27:15.572Z,39.30
2022-12-04T20:29:45.146Z,26.17
2022-12-04T20:32:13.923Z,41.80
2022-12-04T20:34:45.558Z,39.90
2022-12-04T20:37:17.676Z,33.50
2022-12-04T20:39:47.994Z,33.93
2022-12-04T20:42:17.471Z,36.53
2022-12-04T20:44:46.071Z,34.83
2022-12-04T20:47:14.854Z,34.50
2022-12-04T20:49:43.867Z,33.30
2022-12-04T20:52:13.959Z,34.07
2022-12-04T20:54:42.536Z,34.83
2022-12-04T20:57:12.663Z,30.67
2022-12-04T20:59:41.086Z,30.67
2022-12-04T21:02:11.167Z,29.40
2022-12-04T21:04:40.271Z,33.30
2022-12-04T21:07:09.387Z,32.67
2022-12-04T21:09:38.093Z,29.93
2022-12-04T21:12:28.859Z,28.53
2022-12-04T21:15:16.318Z,31.57
2022-12-04T21:17:44.977Z,30.37
2022-12-04T21:20:14.311Z,26.73
2022-12-04T21:22:43.064Z,31.87
2022-12-04T21:25:11.520Z,28.50
2022-12-04T21:27:39.879Z,26.80
2022-12-04T21:30:12.171Z,34.70
2022-12-04T21:32:40.527Z,23.40
2022-12-04T21:35:10.295Z,32.87
2022-12-04T21:37:38.681Z,30.47
2022-12-04T21:40:09.103Z,29.50
2022-12-04T21:42:39.997Z,30.43
2022-12-04T21:45:11.041Z,24.70
2022-12-04T21:47:39.708Z,25.47
2022-12-04T21:50:10.047Z,27.40
2022-12-04T21:52:38.511Z,27.23
2022-12-04T21:55:07.648Z,29.20
2022-12-04T21:57:36.127Z,25.53
2022-12-04T22:00:05.795Z,31.87
2022-12-04T22:02:37.936Z,30.50
2022-12-04T22:05:07.158Z,28.83
2022-12-04T22:07:35.691Z,28.90
2022-12-04T22:10:10.200Z,28.30
2022-12-04T22:12:49.498Z,29.47
2022-12-04T22:15:19.043Z,30.20
2022-12-04T22:17:48.795Z,28.70
2022-12-04T22:20:18.094Z,34.30
2022-12-04T22:22:46.568Z,29.27
2022-12-04T22:25:15.584Z,32.60
2022-12-04T22:27:44.279Z,29.17
2022-12-04T22:30:14.512Z,36.50
2022-12-04T22:32:43.018Z,34.87
2022-12-04T22:35:12.855Z,35.83
2022-12-04T22:37:44.545Z,33.80
2022-12-04T22:40:15.639Z,37.50
2022-12-04T22:42:44.593Z,29.43
2022-12-04T22:45:13.775Z,33.10
2022-12-04T22:47:42.700Z,38.23
2022-12-04T22:50:13.485Z,31.63
2022-12-04T22:52:41.835Z,51.60
2022-12-04T22:55:10.700Z,41.73
2022-12-04T22:57:39.220Z,31.40
2022-12-04T23:00:10.625Z,37.63
2022-12-04T23:02:39.178Z,36.20
2022-12-04T23:05:08.174Z,36.40
2022-12-04T23:07:39.341Z,42.10
2022-12-04T23:10:09.486Z,33.70
2022-12-04T23:12:37.816Z,29.37
2022-12-04T23:15:07.828Z,36.60
2022-12-04T23:17:36.265Z,37.50
2022-12-04T23:20:05.241Z,43.10
2022-12-04T23:22:33.745Z,37.87
2022-12-04T23:25:03.988Z,50.87
2022-12-04T23:27:32.897Z,51.07
2022-12-04T23:30:01.409Z,44.60
2022-12-04T23:32:29.747Z,43.97
2022-12-04T23:34:58.108Z,43.53
2022-12-04T23:37:26.612Z,42.50
2022-12-04T23:39:55.117Z,44.40
2022-12-04T23:42:24.878Z,55.07
2022-12-04T23:44:53.380Z,48.03
2022-12-04T23:47:21.813Z,52.13
2022-12-04T23:49:50.350Z,43.93
2022-12-04T23:52:18.740Z,46.17
2022-12-04T23:54:48.020Z,41.17
2022-12-04T23:57:16.332Z,48.33
2022-12-04T23:59:45.993Z,51.20
